sensor_id;sensor_type;location;lat;lon;timestamp;temperature;humidity
45409;DHT22;31162;51.076;3.784;2022-08-18T00:04:30;18.30;99.90
45409;DHT22;31162;51.076;3.784;2022-08-18T00:06:56;18.40;99.90
45409;DHT22;31162;51.076;3.784;2022-08-18T00:09:22;18.40;99.90
45409;DHT22;31162;51.076;3.784;2022-08-18T00:11:47;18.40;99.90
45409;DHT22;31162;51.076;3.784;2022-08-18T00:14:17;18.30;99.90
45409;DHT22;31162;51.076;3.784;2022-08-18T00:16:43;18.20;99.90
45409;DHT22;31162;51.076;3.784;2022-08-18T00:19:09;18.20;99.90
45409;DHT22;31162;51.076;3.784;2022-08-18T00:21:35;18.30;99.90
45409;DHT22;31162;51.076;3.784;2022-08-18T00:24:00;18.20;99.90
45409;DHT22;31162;51.076;3.784;2022-08-18T00:26:26;18.30;99.90
45409;DHT22;31162;51.076;3.784;2022-08-18T00:28:52;18.30;99.90
45409;DHT22;31162;51.076;3.784;2022-08-18T00:31:17;18.30;99.90
45409;DHT22;31162;51.076;3.784;2022-08-18T00:33:43;18.30;99.90
45409;DHT22;31162;51.076;3.784;2022-08-18T00:36:10;18.50;99.90
45409;DHT22;31162;51.076;3.784;2022-08-18T00:38:37;18.50;99.90
45409;DHT22;31162;51.076;3.784;2022-08-18T00:41:06;18.50;99.90
45409;DHT22;31162;51.076;3.784;2022-08-18T00:46:07;18.40;99.90
45409;DHT22;31162;51.076;3.784;2022-08-18T00:48:33;18.40;99.90
45409;DHT22;31162;51.076;3.784;2022-08-18T00:51:03;18.40;99.90
45409;DHT22;31162;51.076;3.784;2022-08-18T00:53:47;18.30;99.90
45409;DHT22;31162;51.076;3.784;2022-08-18T00:56:21;18.20;99.90
45409;DHT22;31162;51.076;3.784;2022-08-18T00:58:55;18.30;99.90
45409;DHT22;31162;51.076;3.784;2022-08-18T01:01:24;18.30;99.90
45409;DHT22;31162;51.076;3.784;2022-08-18T01:03:58;18.30;99.90
45409;DHT22;31162;51.076;3.784;2022-08-18T01:06:38;18.30;99.90
45409;DHT22;31162;51.076;3.784;2022-08-18T01:09:06;18.20;99.90
45409;DHT22;31162;51.076;3.784;2022-08-18T01:11:33;18.10;99.90
45409;DHT22;31162;51.076;3.784;2022-08-18T01:14:02;18.10;99.90
45409;DHT22;31162;51.076;3.784;2022-08-18T01:16:28;18.00;99.90
45409;DHT22;31162;51.076;3.784;2022-08-18T01:19:12;18.10;99.90
45409;DHT22;31162;51.076;3.784;2022-08-18T01:22:04;18.20;99.90
45409;DHT22;31162;51.076;3.784;2022-08-18T01:24:34;18.20;99.90
45409;DHT22;31162;51.076;3.784;2022-08-18T01:27:19;18.20;99.90
45409;DHT22;31162;51.076;3.784;2022-08-18T01:29:46;18.20;99.90
45409;DHT22;31162;51.076;3.784;2022-08-18T01:32:18;18.20;99.90
45409;DHT22;31162;51.076;3.784;2022-08-18T01:34:48;18.20;99.90
45409;DHT22;31162;51.076;3.784;2022-08-18T01:37:20;18.30;99.90
45409;DHT22;31162;51.076;3.784;2022-08-18T01:39:46;18.20;99.90
45409;DHT22;31162;51.076;3.784;2022-08-18T01:42:15;18.10;99.90
45409;DHT22;31162;51.076;3.784;2022-08-18T01:44:42;18.10;99.90
45409;DHT22;31162;51.076;3.784;2022-08-18T01:47:09;18.00;99.90
45409;DHT22;31162;51.076;3.784;2022-08-18T01:49:36;18.00;99.90
45409;DHT22;31162;51.076;3.784;2022-08-18T01:52:02;18.00;99.90
45409;DHT22;31162;51.076;3.784;2022-08-18T01:54:31;18.00;99.90
45409;DHT22;31162;51.076;3.784;2022-08-18T01:56:57;18.00;99.90
45409;DHT22;31162;51.076;3.784;2022-08-18T01:59:23;17.90;99.90
45409;DHT22;31162;51.076;3.784;2022-08-18T02:01:49;17.80;99.90
45409;DHT22;31162;51.076;3.784;2022-08-18T02:04:22;17.70;99.90
45409;DHT22;31162;51.076;3.784;2022-08-18T02:06:49;17.70;99.90
45409;DHT22;31162;51.076;3.784;2022-08-18T02:09:15;17.70;99.90
45409;DHT22;31162;51.076;3.784;2022-08-18T02:11:41;17.70;99.90
45409;DHT22;31162;51.076;3.784;2022-08-18T02:14:06;17.70;99.90
45409;DHT22;31162;51.076;3.784;2022-08-18T02:16:32;17.80;99.90
45409;DHT22;31162;51.076;3.784;2022-08-18T02:18:58;17.80;99.90
45409;DHT22;31162;51.076;3.784;2022-08-18T02:21:23;17.70;99.90
45409;DHT22;31162;51.076;3.784;2022-08-18T02:23:49;17.70;99.90
45409;DHT22;31162;51.076;3.784;2022-08-18T02:26:16;17.70;99.90
45409;DHT22;31162;51.076;3.784;2022-08-18T02:28:43;17.80;99.90
45409;DHT22;31162;51.076;3.784;2022-08-18T02:31:21;17.70;99.90
45409;DHT22;31162;51.076;3.784;2022-08-18T02:33:47;17.80;99.90
45409;DHT22;31162;51.076;3.784;2022-08-18T02:36:13;17.70;99.90
45409;DHT22;31162;51.076;3.784;2022-08-18T02:38:40;17.80;99.90
45409;DHT22;31162;51.076;3.784;2022-08-18T02:41:09;17.80;99.90
45409;DHT22;31162;51.076;3.784;2022-08-18T02:43:36;17.70;99.90
45409;DHT22;31162;51.076;3.784;2022-08-18T02:46:03;17.70;99.90
45409;DHT22;31162;51.076;3.784;2022-08-18T02:48:30;17.60;99.90
45409;DHT22;31162;51.076;3.784;2022-08-18T02:51:08;17.40;99.90
45409;DHT22;31162;51.076;3.784;2022-08-18T02:53:35;17.40;99.90
45409;DHT22;31162;51.076;3.784;2022-08-18T02:56:18;17.40;99.90
45409;DHT22;31162;51.076;3.784;2022-08-18T02:59:04;17.50;99.90
45409;DHT22;31162;51.076;3.784;2022-08-18T03:01:35;17.50;99.90
45409;DHT22;31162;51.076;3.784;2022-08-18T03:04:03;17.50;99.90
45409;DHT22;31162;51.076;3.784;2022-08-18T03:06:32;17.50;99.90
45409;DHT22;31162;51.076;3.784;2022-08-18T03:08:58;17.40;99.90
45409;DHT22;31162;51.076;3.784;2022-08-18T03:11:26;17.30;99.90
45409;DHT22;31162;51.076;3.784;2022-08-18T03:13:52;17.30;99.90
45409;DHT22;31162;51.076;3.784;2022-08-18T03:16:19;17.40;99.90
45409;DHT22;31162;51.076;3.784;2022-08-18T03:18:46;17.30;99.90
45409;DHT22;31162;51.076;3.784;2022-08-18T03:21:15;17.20;99.90
45409;DHT22;31162;51.076;3.784;2022-08-18T03:23:41;17.20;99.90
45409;DHT22;31162;51.076;3.784;2022-08-18T03:26:10;17.20;99.90
45409;DHT22;31162;51.076;3.784;2022-08-18T03:28:37;17.20;99.90
45409;DHT22;31162;51.076;3.784;2022-08-18T03:31:03;17.10;99.90
45409;DHT22;31162;51.076;3.784;2022-08-18T03:33:29;17.10;99.90
45409;DHT22;31162;51.076;3.784;2022-08-18T03:36:01;17.00;99.90
45409;DHT22;31162;51.076;3.784;2022-08-18T03:38:27;17.00;99.90
45409;DHT22;31162;51.076;3.784;2022-08-18T03:40:53;16.90;99.90
45409;DHT22;31162;51.076;3.784;2022-08-18T03:43:19;16.80;99.90
45409;DHT22;31162;51.076;3.784;2022-08-18T03:45:44;16.80;99.90
45409;DHT22;31162;51.076;3.784;2022-08-18T03:48:10;16.90;99.90
45409;DHT22;31162;51.076;3.784;2022-08-18T03:50:36;16.90;99.90
45409;DHT22;31162;51.076;3.784;2022-08-18T03:53:02;17.00;99.90
45409;DHT22;31162;51.076;3.784;2022-08-18T03:55:30;17.10;99.90
45409;DHT22;31162;51.076;3.784;2022-08-18T03:58:00;17.10;99.90
45409;DHT22;31162;51.076;3.784;2022-08-18T04:00:30;17.10;99.90
45409;DHT22;31162;51.076;3.784;2022-08-18T04:02:57;17.10;99.90
45409;DHT22;31162;51.076;3.784;2022-08-18T04:05:25;17.00;99.90
45409;DHT22;31162;51.076;3.784;2022-08-18T04:07:51;17.00;99.90
45409;DHT22;31162;51.076;3.784;2022-08-18T04:10:18;17.10;99.90
45409;DHT22;31162;51.076;3.784;2022-08-18T04:12:44;17.00;99.90
45409;DHT22;31162;51.076;3.784;2022-08-18T04:15:10;17.00;99.90
45409;DHT22;31162;51.076;3.784;2022-08-18T04:17:36;16.90;99.90
45409;DHT22;31162;51.076;3.784;2022-08-18T04:20:02;16.90;99.90
45409;DHT22;31162;51.076;3.784;2022-08-18T04:22:28;16.90;99.90
45409;DHT22;31162;51.076;3.784;2022-08-18T04:24:57;17.00;99.90
45409;DHT22;31162;51.076;3.784;2022-08-18T04:27:26;16.90;99.90
45409;DHT22;31162;51.076;3.784;2022-08-18T04:29:52;16.90;99.90
45409;DHT22;31162;51.076;3.784;2022-08-18T04:32:18;16.90;99.90
45409;DHT22;31162;51.076;3.784;2022-08-18T04:34:44;16.90;99.90
45409;DHT22;31162;51.076;3.784;2022-08-18T04:37:10;16.90;99.90
45409;DHT22;31162;51.076;3.784;2022-08-18T04:39:36;17.00;99.90
45409;DHT22;31162;51.076;3.784;2022-08-18T04:42:02;17.00;99.90
45409;DHT22;31162;51.076;3.784;2022-08-18T04:44:29;16.90;99.90
45409;DHT22;31162;51.076;3.784;2022-08-18T04:46:56;16.90;99.90
45409;DHT22;31162;51.076;3.784;2022-08-18T04:49:24;16.80;99.90
45409;DHT22;31162;51.076;3.784;2022-08-18T04:51:50;16.80;99.90
45409;DHT22;31162;51.076;3.784;2022-08-18T04:54:36;16.80;99.90
45409;DHT22;31162;51.076;3.784;2022-08-18T04:57:16;16.90;99.90
45409;DHT22;31162;51.076;3.784;2022-08-18T04:59:44;16.80;99.90
45409;DHT22;31162;51.076;3.784;2022-08-18T05:02:10;16.90;99.90
45409;DHT22;31162;51.076;3.784;2022-08-18T05:04:38;17.00;99.90
45409;DHT22;31162;51.076;3.784;2022-08-18T05:07:09;17.10;99.90
45409;DHT22;31162;51.076;3.784;2022-08-18T05:09:36;17.20;99.90
45409;DHT22;31162;51.076;3.784;2022-08-18T05:12:04;17.30;99.90
45409;DHT22;31162;51.076;3.784;2022-08-18T05:14:30;17.40;99.90
45409;DHT22;31162;51.076;3.784;2022-08-18T05:16:59;17.50;99.90
45409;DHT22;31162;51.076;3.784;2022-08-18T05:19:26;17.40;99.90
45409;DHT22;31162;51.076;3.784;2022-08-18T05:21:55;17.40;99.90
45409;DHT22;31162;51.076;3.784;2022-08-18T05:24:22;17.40;99.90
45409;DHT22;31162;51.076;3.784;2022-08-18T05:26:50;17.50;99.90
45409;DHT22;31162;51.076;3.784;2022-08-18T05:29:17;17.60;99.90
45409;DHT22;31162;51.076;3.784;2022-08-18T05:31:47;17.70;99.90
45409;DHT22;31162;51.076;3.784;2022-08-18T05:34:14;17.70;99.90
45409;DHT22;31162;51.076;3.784;2022-08-18T05:39:25;17.70;99.90
45409;DHT22;31162;51.076;3.784;2022-08-18T05:42:05;17.90;99.90
45409;DHT22;31162;51.076;3.784;2022-08-18T05:44:37;18.10;99.90
45409;DHT22;31162;51.076;3.784;2022-08-18T05:47:26;18.30;99.90
45409;DHT22;31162;51.076;3.784;2022-08-18T05:49:55;18.60;99.90
45409;DHT22;31162;51.076;3.784;2022-08-18T05:52:51;18.70;99.90
45409;DHT22;31162;51.076;3.784;2022-08-18T05:55:39;18.80;99.90
45409;DHT22;31162;51.076;3.784;2022-08-18T05:58:29;19.00;99.90
45409;DHT22;31162;51.076;3.784;2022-08-18T06:01:01;19.10;99.90
45409;DHT22;31162;51.076;3.784;2022-08-18T06:03:33;19.30;99.90
45409;DHT22;31162;51.076;3.784;2022-08-18T06:06:02;19.60;99.90
45409;DHT22;31162;51.076;3.784;2022-08-18T06:08:41;19.60;99.90
45409;DHT22;31162;51.076;3.784;2022-08-18T06:11:07;19.90;99.90
45409;DHT22;31162;51.076;3.784;2022-08-18T06:13:41;20.80;99.90
45409;DHT22;31162;51.076;3.784;2022-08-18T06:24:55;22.40;99.90
45409;DHT22;31162;51.076;3.784;2022-08-18T06:28:28;22.40;99.90
45409;DHT22;31162;51.076;3.784;2022-08-18T06:30:40;23.80;99.90
45409;DHT22;31162;51.076;3.784;2022-08-18T06:36:20;27.30;99.90
45409;DHT22;31162;51.076;3.784;2022-08-18T06:41:48;30.70;99.90
45409;DHT22;31162;51.076;3.784;2022-08-18T06:47:37;32.50;99.90
45409;DHT22;31162;51.076;3.784;2022-08-18T06:52:55;33.90;99.90
45409;DHT22;31162;51.076;3.784;2022-08-18T06:55:36;34.30;99.90
45409;DHT22;31162;51.076;3.784;2022-08-18T06:58:05;34.90;99.90
45409;DHT22;31162;51.076;3.784;2022-08-18T07:00:35;35.80;98.00
45409;DHT22;31162;51.076;3.784;2022-08-18T07:03:11;36.00;98.20
45409;DHT22;31162;51.076;3.784;2022-08-18T07:05:37;36.60;96.40
45409;DHT22;31162;51.076;3.784;2022-08-18T07:10:54;37.50;94.60
45409;DHT22;31162;51.076;3.784;2022-08-18T07:15:47;37.90;92.10
45409;DHT22;31162;51.076;3.784;2022-08-18T07:18:20;37.40;92.60
45409;DHT22;31162;51.076;3.784;2022-08-18T07:20:55;36.90;92.00
45409;DHT22;31162;51.076;3.784;2022-08-18T07:23:37;36.80;93.30
45409;DHT22;31162;51.076;3.784;2022-08-18T07:26:16;38.10;91.80
45409;DHT22;31162;51.076;3.784;2022-08-18T07:28:46;38.20;90.30
45409;DHT22;31162;51.076;3.784;2022-08-18T07:37:01;37.00;91.40
45409;DHT22;31162;51.076;3.784;2022-08-18T07:39:43;38.90;90.70
45409;DHT22;31162;51.076;3.784;2022-08-18T07:42:12;40.00;87.00
45409;DHT22;31162;51.076;3.784;2022-08-18T07:47:21;40.20;84.60
45409;DHT22;31162;51.076;3.784;2022-08-18T07:49:47;38.30;87.70
45409;DHT22;31162;51.076;3.784;2022-08-18T07:52:20;37.90;87.10
45409;DHT22;31162;51.076;3.784;2022-08-18T08:11:12;33.00;92.30
45409;DHT22;31162;51.076;3.784;2022-08-18T08:14:03;32.70;92.90
45409;DHT22;31162;51.076;3.784;2022-08-18T08:16:51;32.60;93.40
45409;DHT22;31162;51.076;3.784;2022-08-18T08:19:41;33.00;93.20
45409;DHT22;31162;51.076;3.784;2022-08-18T08:22:20;33.70;93.00
45409;DHT22;31162;51.076;3.784;2022-08-18T08:25:15;33.60;91.40
45409;DHT22;31162;51.076;3.784;2022-08-18T08:27:57;32.80;91.70
45409;DHT22;31162;51.076;3.784;2022-08-18T08:30:29;32.20;92.50
45409;DHT22;31162;51.076;3.784;2022-08-18T08:33:06;31.90;93.80
45409;DHT22;31162;51.076;3.784;2022-08-18T08:35:45;31.50;95.30
45409;DHT22;31162;51.076;3.784;2022-08-18T08:38:46;32.10;93.90
45409;DHT22;31162;51.076;3.784;2022-08-18T08:41:23;32.70;93.80
45409;DHT22;31162;51.076;3.784;2022-08-18T08:47:04;32.70;93.60
45409;DHT22;31162;51.076;3.784;2022-08-18T08:49:43;34.40;92.70
45409;DHT22;31162;51.076;3.784;2022-08-18T08:52:28;36.20;91.20
45409;DHT22;31162;51.076;3.784;2022-08-18T08:55:03;35.80;90.40
45409;DHT22;31162;51.076;3.784;2022-08-18T08:57:35;34.40;91.10
45409;DHT22;31162;51.076;3.784;2022-08-18T09:00:07;33.10;92.40
45409;DHT22;31162;51.076;3.784;2022-08-18T09:05:24;34.90;92.00
45409;DHT22;31162;51.076;3.784;2022-08-18T09:21:58;41.80;77.60
45409;DHT22;31162;51.076;3.784;2022-08-18T09:24:40;41.30;75.60
45409;DHT22;31162;51.076;3.784;2022-08-18T09:27:42;41.60;76.40
45409;DHT22;31162;51.076;3.784;2022-08-18T09:30:41;40.30;77.30
45409;DHT22;31162;51.076;3.784;2022-08-18T09:33:16;38.20;80.40
45409;DHT22;31162;51.076;3.784;2022-08-18T09:38:21;35.10;84.10
45409;DHT22;31162;51.076;3.784;2022-08-18T09:41:25;33.80;87.90
45409;DHT22;31162;51.076;3.784;2022-08-18T09:46:55;32.20;90.40
45409;DHT22;31162;51.076;3.784;2022-08-18T09:57:35;30.50;92.50
45409;DHT22;31162;51.076;3.784;2022-08-18T10:10:47;34.90;86.00
45409;DHT22;31162;51.076;3.784;2022-08-18T10:16:31;35.20;82.30
45409;DHT22;31162;51.076;3.784;2022-08-18T10:22:11;33.70;85.10
45409;DHT22;31162;51.076;3.784;2022-08-18T10:24:51;33.40;89.70
45409;DHT22;31162;51.076;3.784;2022-08-18T10:33:09;31.40;90.10
45409;DHT22;31162;51.076;3.784;2022-08-18T10:40:29;31.00;92.00
45409;DHT22;31162;51.076;3.784;2022-08-18T10:43:23;31.40;92.00
45409;DHT22;31162;51.076;3.784;2022-08-18T10:45:55;33.80;89.00
45409;DHT22;31162;51.076;3.784;2022-08-18T10:48:24;35.80;84.80
45409;DHT22;31162;51.076;3.784;2022-08-18T10:51:19;36.70;82.10
45409;DHT22;31162;51.076;3.784;2022-08-18T10:56:32;38.80;80.40
45409;DHT22;31162;51.076;3.784;2022-08-18T11:07:25;37.40;79.90
45409;DHT22;31162;51.076;3.784;2022-08-18T11:09:54;38.80;78.50
45409;DHT22;31162;51.076;3.784;2022-08-18T11:18:12;41.10;74.50
45409;DHT22;31162;51.076;3.784;2022-08-18T11:20:41;40.60;73.80
45409;DHT22;31162;51.076;3.784;2022-08-18T11:23:13;40.50;73.80
45409;DHT22;31162;51.076;3.784;2022-08-18T11:25:39;39.10;75.30
45409;DHT22;31162;51.076;3.784;2022-08-18T11:28:21;37.60;76.60
45409;DHT22;31162;51.076;3.784;2022-08-18T11:30:51;35.90;79.40
45409;DHT22;31162;51.076;3.784;2022-08-18T11:33:19;34.60;81.90
45409;DHT22;31162;51.076;3.784;2022-08-18T11:35:49;33.90;83.40
45409;DHT22;31162;51.076;3.784;2022-08-18T11:38:17;34.60;82.80
45409;DHT22;31162;51.076;3.784;2022-08-18T11:40:48;35.40;78.90
45409;DHT22;31162;51.076;3.784;2022-08-18T11:45:56;37.60;74.90
45409;DHT22;31162;51.076;3.784;2022-08-18T11:48:42;38.80;73.70
45409;DHT22;31162;51.076;3.784;2022-08-18T12:01:34;34.60;80.30
45409;DHT22;31162;51.076;3.784;2022-08-18T12:09:40;34.60;80.10
45409;DHT22;31162;51.076;3.784;2022-08-18T12:12:18;35.20;79.80
45409;DHT22;31162;51.076;3.784;2022-08-18T12:14:56;35.50;79.40
45409;DHT22;31162;51.076;3.784;2022-08-18T12:17:23;35.30;78.10
45409;DHT22;31162;51.076;3.784;2022-08-18T12:19:49;34.60;79.00
45409;DHT22;31162;51.076;3.784;2022-08-18T12:22:18;34.40;80.00
45409;DHT22;31162;51.076;3.784;2022-08-18T12:24:46;34.50;79.70
45409;DHT22;31162;51.076;3.784;2022-08-18T12:27:13;34.60;79.80
45409;DHT22;31162;51.076;3.784;2022-08-18T12:29:41;34.80;78.60
45409;DHT22;31162;51.076;3.784;2022-08-18T12:32:07;34.60;80.60
45409;DHT22;31162;51.076;3.784;2022-08-18T12:34:32;34.20;80.90
45409;DHT22;31162;51.076;3.784;2022-08-18T12:36:59;33.50;80.60
45409;DHT22;31162;51.076;3.784;2022-08-18T12:39:29;32.80;83.10
45409;DHT22;31162;51.076;3.784;2022-08-18T12:41:55;32.30;83.50
45409;DHT22;31162;51.076;3.784;2022-08-18T12:44:21;32.00;83.70
45409;DHT22;31162;51.076;3.784;2022-08-18T12:46:47;31.60;83.60
45409;DHT22;31162;51.076;3.784;2022-08-18T12:49:16;31.30;85.30
45409;DHT22;31162;51.076;3.784;2022-08-18T12:51:42;31.50;84.40
45409;DHT22;31162;51.076;3.784;2022-08-18T12:54:08;31.60;85.00
45409;DHT22;31162;51.076;3.784;2022-08-18T12:56:35;31.60;85.30
45409;DHT22;31162;51.076;3.784;2022-08-18T12:59:03;31.80;83.00
45409;DHT22;31162;51.076;3.784;2022-08-18T13:01:29;31.90;83.40
45409;DHT22;31162;51.076;3.784;2022-08-18T13:03:55;31.80;84.80
45409;DHT22;31162;51.076;3.784;2022-08-18T13:06:22;31.60;84.10
45409;DHT22;31162;51.076;3.784;2022-08-18T13:08:49;31.30;86.60
45409;DHT22;31162;51.076;3.784;2022-08-18T13:11:15;30.90;84.30
45409;DHT22;31162;51.076;3.784;2022-08-18T13:13:42;30.90;87.10
45409;DHT22;31162;51.076;3.784;2022-08-18T13:16:09;31.30;85.90
45409;DHT22;31162;51.076;3.784;2022-08-18T13:18:36;31.70;85.30
45409;DHT22;31162;51.076;3.784;2022-08-18T13:21:03;32.40;83.70
45409;DHT22;31162;51.076;3.784;2022-08-18T13:23:30;32.90;83.90
45409;DHT22;31162;51.076;3.784;2022-08-18T13:25:58;33.10;83.10
45409;DHT22;31162;51.076;3.784;2022-08-18T13:28:24;33.20;82.50
45409;DHT22;31162;51.076;3.784;2022-08-18T13:30:52;33.10;82.60
45409;DHT22;31162;51.076;3.784;2022-08-18T13:33:18;33.00;83.70
45409;DHT22;31162;51.076;3.784;2022-08-18T13:35:46;33.00;84.40
45409;DHT22;31162;51.076;3.784;2022-08-18T13:38:13;32.90;82.00
45409;DHT22;31162;51.076;3.784;2022-08-18T13:40:40;32.60;82.00
45409;DHT22;31162;51.076;3.784;2022-08-18T13:43:05;32.90;83.60
45409;DHT22;31162;51.076;3.784;2022-08-18T13:45:33;32.80;83.00
45409;DHT22;31162;51.076;3.784;2022-08-18T13:47:58;33.10;83.70
45409;DHT22;31162;51.076;3.784;2022-08-18T13:50:24;33.10;80.40
45409;DHT22;31162;51.076;3.784;2022-08-18T13:52:50;33.00;81.20
45409;DHT22;31162;51.076;3.784;2022-08-18T13:55:17;33.00;81.40
45409;DHT22;31162;51.076;3.784;2022-08-18T13:57:44;33.10;80.80
45409;DHT22;31162;51.076;3.784;2022-08-18T14:00:16;32.70;81.00
45409;DHT22;31162;51.076;3.784;2022-08-18T14:02:42;32.30;81.10
45409;DHT22;31162;51.076;3.784;2022-08-18T14:05:08;32.00;82.30
45409;DHT22;31162;51.076;3.784;2022-08-18T14:07:35;31.70;81.00
45409;DHT22;31162;51.076;3.784;2022-08-18T14:10:03;31.70;82.60
45409;DHT22;31162;51.076;3.784;2022-08-18T14:12:29;31.50;85.30
45409;DHT22;31162;51.076;3.784;2022-08-18T14:14:56;31.30;85.70
45409;DHT22;31162;51.076;3.784;2022-08-18T14:17:23;31.00;86.30
45409;DHT22;31162;51.076;3.784;2022-08-18T14:19:50;30.80;87.40
45409;DHT22;31162;51.076;3.784;2022-08-18T14:22:34;30.60;86.60
45409;DHT22;31162;51.076;3.784;2022-08-18T14:25:19;30.10;86.70
45409;DHT22;31162;51.076;3.784;2022-08-18T14:28:03;29.90;88.50
45409;DHT22;31162;51.076;3.784;2022-08-18T14:30:29;29.60;88.40
45409;DHT22;31162;51.076;3.784;2022-08-18T14:32:57;29.70;87.90
45409;DHT22;31162;51.076;3.784;2022-08-18T14:35:23;29.80;88.40
45409;DHT22;31162;51.076;3.784;2022-08-18T14:37:48;29.80;88.40
45409;DHT22;31162;51.076;3.784;2022-08-18T14:40:14;30.00;87.20
45409;DHT22;31162;51.076;3.784;2022-08-18T14:42:40;30.00;88.60
45409;DHT22;31162;51.076;3.784;2022-08-18T14:45:07;30.20;89.70
45409;DHT22;31162;51.076;3.784;2022-08-18T14:47:33;30.00;88.20
45409;DHT22;31162;51.076;3.784;2022-08-18T14:49:59;29.80;89.10
45409;DHT22;31162;51.076;3.784;2022-08-18T14:52:26;29.60;90.40
45409;DHT22;31162;51.076;3.784;2022-08-18T14:54:52;29.40;90.10
45409;DHT22;31162;51.076;3.784;2022-08-18T14:57:21;29.60;90.60
45409;DHT22;31162;51.076;3.784;2022-08-18T14:59:46;29.40;90.40
45409;DHT22;31162;51.076;3.784;2022-08-18T15:02:12;29.30;90.70
45409;DHT22;31162;51.076;3.784;2022-08-18T15:04:38;29.10;90.50
45409;DHT22;31162;51.076;3.784;2022-08-18T15:07:03;28.90;91.00
45409;DHT22;31162;51.076;3.784;2022-08-18T15:09:29;28.70;91.30
45409;DHT22;31162;51.076;3.784;2022-08-18T15:11:56;28.60;91.30
45409;DHT22;31162;51.076;3.784;2022-08-18T15:14:25;28.50;91.30
45409;DHT22;31162;51.076;3.784;2022-08-18T15:16:51;28.60;91.40
45409;DHT22;31162;51.076;3.784;2022-08-18T15:19:17;28.80;91.30
45409;DHT22;31162;51.076;3.784;2022-08-18T15:21:42;28.90;91.30
45409;DHT22;31162;51.076;3.784;2022-08-18T15:24:26;29.00;90.30
45409;DHT22;31162;51.076;3.784;2022-08-18T15:27:10;29.00;91.00
45409;DHT22;31162;51.076;3.784;2022-08-18T15:29:36;28.90;90.60
45409;DHT22;31162;51.076;3.784;2022-08-18T15:32:02;28.90;92.10
45409;DHT22;31162;51.076;3.784;2022-08-18T15:34:28;28.70;91.50
45409;DHT22;31162;51.076;3.784;2022-08-18T15:36:54;28.70;91.90
45409;DHT22;31162;51.076;3.784;2022-08-18T15:39:21;28.90;91.70
45409;DHT22;31162;51.076;3.784;2022-08-18T15:41:47;28.80;91.90
45409;DHT22;31162;51.076;3.784;2022-08-18T15:44:14;28.80;91.50
45409;DHT22;31162;51.076;3.784;2022-08-18T15:46:40;28.90;92.30
45409;DHT22;31162;51.076;3.784;2022-08-18T15:49:06;28.90;91.70
45409;DHT22;31162;51.076;3.784;2022-08-18T15:51:37;28.90;92.00
45409;DHT22;31162;51.076;3.784;2022-08-18T15:54:04;29.00;92.50
45409;DHT22;31162;51.076;3.784;2022-08-18T15:56:31;29.10;91.60
45409;DHT22;31162;51.076;3.784;2022-08-18T15:58:57;29.30;91.20
45409;DHT22;31162;51.076;3.784;2022-08-18T16:01:25;29.20;91.10
45409;DHT22;31162;51.076;3.784;2022-08-18T16:03:52;29.00;91.40
45409;DHT22;31162;51.076;3.784;2022-08-18T16:06:21;28.60;91.80
45409;DHT22;31162;51.076;3.784;2022-08-18T16:08:48;28.20;92.50
45409;DHT22;31162;51.076;3.784;2022-08-18T16:11:14;28.10;92.60
45409;DHT22;31162;51.076;3.784;2022-08-18T16:13:42;28.00;92.70
45409;DHT22;31162;51.076;3.784;2022-08-18T16:16:10;27.90;92.80
45409;DHT22;31162;51.076;3.784;2022-08-18T16:18:37;27.80;92.90
45409;DHT22;31162;51.076;3.784;2022-08-18T16:21:05;27.60;93.60
45409;DHT22;31162;51.076;3.784;2022-08-18T16:23:35;27.70;94.10
45409;DHT22;31162;51.076;3.784;2022-08-18T16:26:00;27.70;93.90
45409;DHT22;31162;51.076;3.784;2022-08-18T16:28:27;27.80;93.70
45409;DHT22;31162;51.076;3.784;2022-08-18T16:30:52;27.70;93.90
45409;DHT22;31162;51.076;3.784;2022-08-18T16:33:19;27.70;93.50
45409;DHT22;31162;51.076;3.784;2022-08-18T16:35:44;27.60;94.00
45409;DHT22;31162;51.076;3.784;2022-08-18T16:38:12;27.70;94.00
45409;DHT22;31162;51.076;3.784;2022-08-18T16:40:38;27.80;94.50
45409;DHT22;31162;51.076;3.784;2022-08-18T16:43:06;27.90;94.30
45409;DHT22;31162;51.076;3.784;2022-08-18T16:45:32;28.00;94.20
45409;DHT22;31162;51.076;3.784;2022-08-18T16:48:00;28.10;93.60
45409;DHT22;31162;51.076;3.784;2022-08-18T16:50:27;28.00;93.80
45409;DHT22;31162;51.076;3.784;2022-08-18T16:52:53;28.00;93.90
45409;DHT22;31162;51.076;3.784;2022-08-18T16:55:19;28.00;94.20
45409;DHT22;31162;51.076;3.784;2022-08-18T16:57:45;28.00;94.00
45409;DHT22;31162;51.076;3.784;2022-08-18T17:00:31;27.80;94.10
45409;DHT22;31162;51.076;3.784;2022-08-18T17:03:16;27.70;94.50
45409;DHT22;31162;51.076;3.784;2022-08-18T17:06:07;27.70;94.70
45409;DHT22;31162;51.076;3.784;2022-08-18T17:08:34;27.60;95.00
45409;DHT22;31162;51.076;3.784;2022-08-18T17:11:05;27.60;95.50
45409;DHT22;31162;51.076;3.784;2022-08-18T17:13:31;27.60;95.00
45409;DHT22;31162;51.076;3.784;2022-08-18T17:15:57;27.40;95.10
45409;DHT22;31162;51.076;3.784;2022-08-18T17:18:23;27.40;95.70
45409;DHT22;31162;51.076;3.784;2022-08-18T17:20:49;27.40;95.90
45409;DHT22;31162;51.076;3.784;2022-08-18T17:23:16;27.30;95.30
45409;DHT22;31162;51.076;3.784;2022-08-18T17:25:42;27.10;95.70
45409;DHT22;31162;51.076;3.784;2022-08-18T17:28:08;26.90;96.00
45409;DHT22;31162;51.076;3.784;2022-08-18T17:30:36;26.90;96.30
45409;DHT22;31162;51.076;3.784;2022-08-18T17:33:12;26.80;96.60
45409;DHT22;31162;51.076;3.784;2022-08-18T17:35:42;26.80;96.40
45409;DHT22;31162;51.076;3.784;2022-08-18T17:38:31;26.60;96.80
45409;DHT22;31162;51.076;3.784;2022-08-18T17:41:02;26.50;97.10
45409;DHT22;31162;51.076;3.784;2022-08-18T17:43:31;26.50;96.90
45409;DHT22;31162;51.076;3.784;2022-08-18T17:46:17;26.50;97.20
45409;DHT22;31162;51.076;3.784;2022-08-18T17:49:23;26.50;97.10
45409;DHT22;31162;51.076;3.784;2022-08-18T17:52:12;26.40;97.20
45409;DHT22;31162;51.076;3.784;2022-08-18T17:54:46;26.40;97.60
45409;DHT22;31162;51.076;3.784;2022-08-18T17:57:29;26.40;97.40
45409;DHT22;31162;51.076;3.784;2022-08-18T18:00:10;26.30;97.20
45409;DHT22;31162;51.076;3.784;2022-08-18T18:02:37;26.30;97.40
45409;DHT22;31162;51.076;3.784;2022-08-18T18:05:07;26.00;98.00
45409;DHT22;31162;51.076;3.784;2022-08-18T18:10:21;25.80;98.30
45409;DHT22;31162;51.076;3.784;2022-08-18T18:13:07;25.60;98.60
45409;DHT22;31162;51.076;3.784;2022-08-18T18:15:35;25.60;98.90
45409;DHT22;31162;51.076;3.784;2022-08-18T18:18:25;25.60;99.60
45409;DHT22;31162;51.076;3.784;2022-08-18T18:21:05;25.50;99.50
45409;DHT22;31162;51.076;3.784;2022-08-18T18:23:36;25.50;99.90
45409;DHT22;31162;51.076;3.784;2022-08-18T18:28:51;25.30;99.90
45409;DHT22;31162;51.076;3.784;2022-08-18T18:31:26;25.10;99.90
45409;DHT22;31162;51.076;3.784;2022-08-18T18:34:01;25.00;99.90